Time;durP1;ratioP1;P1;durP2;ratioP2;P2;SDS_P1;SDS_P2;PMS_P1;PMS_P2;Temp;Humidity;BMP_temperature;BMP_pressure;BME280_temperature;BME280_humidity;BME280_pressure;Samples;Min_cycle;Max_cycle;Signal;HPM_P1;HPM_P2
2022/01/08 00:00:35;;;;;;;2.55;1.60;;;;;;;-5.78;66.81;98986.84;4995997;28;19926;-60
2022/01/08 00:03:02;;;;;;;2.30;1.30;;;;;;;-5.71;66.31;99000.25;4995489;28;20133;-60
2022/01/08 00:05:29;;;;;;;2.53;1.48;;;;;;;-5.65;66.56;98999.28;4995228;28;20395;-62
2022/01/08 00:07:56;;;;;;;1.50;1.15;;;;;;;-5.62;66.01;99007.72;4995667;28;20042;-62
2022/01/08 00:10:23;;;;;;;2.22;1.63;;;;;;;-5.63;65.80;99026.91;4995034;28;20077;-61
2022/01/08 00:12:51;;;;;;;2.58;1.48;;;;;;;-5.65;65.66;99018.22;4995430;28;20058;-61
2022/01/08 00:15:18;;;;;;;3.00;1.30;;;;;;;-5.63;65.36;99026.13;4994706;28;20042;-61
2022/01/08 00:17:45;;;;;;;2.35;1.23;;;;;;;-5.70;65.19;99021.66;4995011;28;20061;-61
2022/01/08 00:20:13;;;;;;;1.75;1.20;;;;;;;-5.72;65.26;99028.38;4995692;28;20050;-61
2022/01/08 00:22:40;;;;;;;3.33;1.50;;;;;;;-5.65;65.50;99024.44;5012810;28;20486;-62
2022/01/08 00:25:07;;;;;;;3.63;1.42;;;;;;;-5.61;64.96;99024.81;5011108;28;20473;-61
2022/01/08 00:27:34;;;;;;;5.38;1.33;;;;;;;-5.53;64.84;99029.84;4991257;28;20073;-59
2022/01/08 00:30:02;;;;;;;2.55;1.45;;;;;;;-5.51;64.55;99040.44;4994368;28;20536;-57
2022/01/08 00:32:29;;;;;;;4.78;1.42;;;;;;;-5.48;64.19;99037.25;4994661;28;20125;-58
2022/01/08 00:34:56;;;;;;;2.50;1.40;;;;;;;-5.51;63.86;99040.44;4994865;28;20080;-58
2022/01/08 00:37:22;;;;;;;1.95;1.17;;;;;;;-5.51;63.73;99041.25;4994225;28;20164;-59
2022/01/08 00:39:49;;;;;;;2.47;1.52;;;;;;;-5.48;63.63;99056.22;4993489;28;20054;-60
2022/01/08 00:42:16;;;;;;;1.63;0.90;;;;;;;-5.48;62.87;99056.22;4994207;28;20054;-59
2022/01/08 00:44:43;;;;;;;2.10;1.40;;;;;;;-5.54;62.54;99057.97;4994516;28;20046;-56
2022/01/08 00:47:10;;;;;;;2.42;1.60;;;;;;;-5.50;62.67;99067.28;4994599;28;20058;-59
2022/01/08 00:49:37;;;;;;;4.05;1.20;;;;;;;-5.47;62.56;99057.84;4994695;28;20046;-60
2022/01/08 00:52:05;;;;;;;3.22;1.55;;;;;;;-5.44;62.41;99073.63;4994283;28;20089;-59
2022/01/08 00:54:35;;;;;;;1.52;1.00;;;;;;;-5.49;62.36;99065.38;4994503;28;20581;-59
2022/01/08 00:57:03;;;;;;;3.05;1.30;;;;;;;-5.46;62.09;99075.75;4994116;28;20117;-59
2022/01/08 00:59:31;;;;;;;3.03;1.33;;;;;;;-5.44;62.01;99065.50;4994528;28;20137;-58
2022/01/08 01:01:58;;;;;;;3.90;1.60;;;;;;;-5.51;61.06;99078.38;4992658;28;20050;-57
2022/01/08 01:04:25;;;;;;;2.90;1.40;;;;;;;-5.53;61.17;99072.34;4994639;28;20060;-58
2022/01/08 01:06:52;;;;;;;1.88;1.30;;;;;;;-5.51;60.85;99081.09;4993882;28;20081;-59
2022/01/08 01:09:19;;;;;;;1.75;1.13;;;;;;;-5.50;61.25;99086.25;4994120;28;20046;-59
2022/01/08 01:11:46;;;;;;;2.95;1.30;;;;;;;-5.51;61.29;99083.78;4994022;28;20085;-59
2022/01/08 01:14:13;;;;;;;1.92;1.30;;;;;;;-5.48;61.12;99097.66;4992771;28;20064;-60
2022/01/08 01:16:40;;;;;;;3.95;1.30;;;;;;;-5.48;60.61;99099.56;4994111;28;20050;-57
2022/01/08 01:19:08;;;;;;;2.17;1.27;;;;;;;-5.50;60.69;99107.09;4992708;28;20046;-58
2022/01/08 01:21:34;;;;;;;2.47;1.40;;;;;;;-5.51;60.83;99110.88;4993973;28;20050;-59
2022/01/08 01:24:08;;;;;;;1.95;1.20;;;;;;;-5.49;61.01;99119.56;4992244;28;20082;-60
2022/01/08 01:26:38;;;;;;;3.83;1.73;;;;;;;-5.48;60.78;99122.03;4993969;28;20065;-60
2022/01/08 01:29:28;;;;;;;2.20;1.52;;;;;;;-5.56;60.84;99129.72;4993684;28;20137;-60
2022/01/08 01:48:20;;;;;;;1.35;1.10;;;;;;;-5.39;60.49;99158.53;4993785;28;20053;-59
2022/01/08 01:50:47;;;;;;;1.23;0.82;;;;;;;-5.43;60.49;99151.13;4992890;28;20061;-58
2022/01/08 01:53:15;;;;;;;1.30;0.98;;;;;;;-5.45;60.24;99151.38;4992005;28;20145;-56
2022/01/08 01:55:42;;;;;;;2.55;1.23;;;;;;;-5.44;60.57;99165.75;4992748;28;20413;-58
2022/01/08 01:58:10;;;;;;;4.15;1.23;;;;;;;-5.45;60.55;99164.91;4993731;28;20096;-59
2022/01/08 02:00:37;;;;;;;2.33;1.23;;;;;;;-5.44;60.40;99160.31;4991886;28;20101;-59
2022/01/08 02:03:04;;;;;;;1.92;1.20;;;;;;;-5.44;60.92;99163.88;4993109;28;20074;-59
2022/01/08 02:05:31;;;;;;;1.95;1.10;;;;;;;-5.43;61.13;99167.38;4992937;28;20050;-59
2022/01/08 02:07:58;;;;;;;1.95;1.00;;;;;;;-5.48;61.17;99170.81;4993012;28;20058;-59
2022/01/08 02:10:26;;;;;;;2.60;1.20;;;;;;;-5.53;60.62;99170.72;4992823;28;20057;-59
2022/01/08 02:12:53;;;;;;;2.58;1.50;;;;;;;-5.54;60.98;99187.22;4993167;28;20417;-58
2022/01/08 02:15:20;;;;;;;1.70;1.10;;;;;;;-5.57;60.60;99188.50;4993106;28;20057;-59
2022/01/08 02:17:47;;;;;;;1.25;0.88;;;;;;;-5.62;60.50;99194.63;4992701;28;20144;-57
2022/01/08 02:20:14;;;;;;;1.90;1.70;;;;;;;-5.65;61.11;99207.84;4976391;28;20042;-59
2022/01/08 02:22:41;;;;;;;2.50;1.40;;;;;;;-5.70;60.83;99195.00;4992474;28;20053;-58
2022/01/08 02:25:08;;;;;;;2.13;1.27;;;;;;;-5.69;61.18;99212.91;4992886;28;20421;-60
2022/01/08 02:27:35;;;;;;;2.75;1.63;;;;;;;-5.66;61.37;99217.84;4992121;28;20149;-58
2022/01/08 02:30:03;;;;;;;2.45;1.20;;;;;;;-5.67;61.57;99220.78;4993209;28;20129;-58
2022/01/08 02:32:31;;;;;;;1.90;1.13;;;;;;;-5.68;61.40;99222.66;4992033;28;20046;-58
2022/01/08 02:34:58;;;;;;;1.80;1.00;;;;;;;-5.69;61.92;99222.91;4993057;28;20061;-58
2022/01/08 02:37:29;;;;;;;2.58;1.70;;;;;;;-5.65;61.50;99234.94;4992249;28;20050;-58
2022/01/08 02:39:57;;;;;;;1.98;1.20;;;;;;;-5.60;61.85;99236.94;4992698;28;20046;-59
2022/01/08 02:42:28;;;;;;;1.70;1.20;;;;;;;-5.56;61.74;99240.81;4992118;28;21405;-59
2022/01/08 02:44:55;;;;;;;2.05;1.20;;;;;;;-5.53;62.19;99238.47;4992743;28;20050;-58
2022/01/08 02:47:22;;;;;;;2.80;1.33;;;;;;;-5.54;62.13;99247.63;4992271;28;20089;-59
2022/01/08 02:49:52;;;;;;;2.53;1.20;;;;;;;-5.51;62.55;99251.78;4992759;28;20057;-59
2022/01/08 02:52:21;;;;;;;2.17;1.00;;;;;;;-5.49;62.28;99242.34;4992127;28;20117;-58
2022/01/08 02:54:49;;;;;;;1.23;0.82;;;;;;;-5.49;63.09;99246.91;4992579;28;20125;-59
2022/01/08 02:57:16;;;;;;;1.60;1.20;;;;;;;-5.53;62.48;99256.59;4992381;28;20053;-60
2022/01/08 02:59:42;;;;;;;3.10;1.55;;;;;;;-5.51;62.75;99266.13;4989099;28;20124;-61
2022/01/08 03:02:09;;;;;;;4.15;1.38;;;;;;;-5.50;62.86;99264.25;4992329;28;20050;-57
2022/01/08 03:04:36;;;;;;;1.90;1.17;;;;;;;-5.52;63.02;99272.63;4992847;28;20054;-60
2022/01/08 03:07:04;;;;;;;4.20;1.40;;;;;;;-5.53;62.75;99280.97;4992461;28;20458;-59
2022/01/08 03:09:34;;;;;;;1.63;1.20;;;;;;;-5.55;63.35;99288.50;4992103;28;20054;-58
2022/01/08 03:12:01;;;;;;;2.42;1.60;;;;;;;-5.56;63.39;99289.56;4992439;28;20055;-59
2022/01/08 03:14:28;;;;;;;3.72;1.70;;;;;;;-5.57;63.51;99296.88;4991112;28;20053;-60
2022/01/08 03:16:54;;;;;;;5.32;2.10;;;;;;;-5.55;63.43;99302.06;4992463;28;20502;-58
2022/01/08 03:19:23;;;;;;;4.57;1.67;;;;;;;-5.54;63.34;99301.00;4992155;28;20049;-61
2022/01/08 03:21:53;;;;;;;2.80;1.27;;;;;;;-5.51;63.63;99303.25;4992356;28;20054;-62
2022/01/08 03:24:28;;;;;;;1.88;1.10;;;;;;;-5.55;64.04;99300.19;4992035;28;20054;-61
2022/01/08 03:26:57;;;;;;;3.30;1.50;;;;;;;-5.53;63.85;99305.34;4991987;28;20054;-61
2022/01/08 03:29:25;;;;;;;4.50;1.45;;;;;;;-5.50;63.76;99304.88;4992269;28;20077;-61
2022/01/08 03:31:52;;;;;;;2.72;1.33;;;;;;;-5.47;63.97;99312.53;4992440;28;20055;-61
2022/01/08 03:34:19;;;;;;;2.03;1.42;;;;;;;-5.49;63.82;99314.66;4992020;28;20046;-61
2022/01/08 03:36:46;;;;;;;7.40;1.48;;;;;;;-5.53;63.51;99308.91;4992137;28;20046;-61
2022/01/08 03:39:13;;;;;;;1.67;1.10;;;;;;;-5.53;63.96;99318.91;4991795;28;20513;-61
2022/01/08 03:41:42;;;;;;;3.17;1.50;;;;;;;-5.47;64.08;99323.38;4991830;28;20145;-62
2022/01/08 03:44:09;;;;;;;1.90;1.30;;;;;;;-5.47;64.43;99324.22;4991649;28;20051;-58
2022/01/08 03:46:36;;;;;;;1.75;1.10;;;;;;;-5.44;63.96;99323.75;4990977;28;20050;-58
2022/01/08 03:51:33;;;;;;;2.58;1.33;;;;;;;-5.35;63.66;99329.63;4991911;28;20683;-58
2022/01/08 03:54:00;;;;;;;3.05;1.38;;;;;;;-5.36;64.03;99330.69;4974314;28;20506;-59
2022/01/08 03:56:27;;;;;;;1.50;1.10;;;;;;;-5.39;64.47;99334.69;4990352;28;20046;-58
2022/01/08 03:58:54;;;;;;;1.92;1.30;;;;;;;-5.41;64.78;99341.41;4991910;28;20072;-58
2022/01/08 04:01:21;;;;;;;3.22;1.38;;;;;;;-5.38;64.99;99338.22;4991159;28;20536;-57
2022/01/08 04:03:48;;;;;;;2.22;1.30;;;;;;;-5.39;64.53;99342.81;4992544;28;20520;-56
2022/01/08 04:06:16;;;;;;;1.60;0.98;;;;;;;-5.39;64.99;99342.00;4994996;28;20137;-60
2022/01/08 04:08:42;;;;;;;1.52;1.05;;;;;;;-5.37;64.99;99342.59;4995684;28;20413;-61
2022/01/08 04:11:09;;;;;;;1.70;1.20;;;;;;;-5.38;64.98;99359.91;4994750;28;20061;-61
2022/01/08 04:13:39;;;;;;;1.13;0.82;;;;;;;-5.35;64.71;99354.03;4995385;28;20050;-61
2022/01/08 04:16:14;;;;;;;1.25;0.95;;;;;;;-5.43;64.80;99346.22;4993885;28;20167;-61
2022/01/08 04:18:41;;;;;;;2.53;1.27;;;;;;;-5.42;64.69;99348.72;4993862;28;20051;-61
2022/01/08 04:23:54;;;;;;;1.77;1.00;;;;;;;-5.36;64.88;99346.97;4995357;28;20545;-60
2022/01/08 04:26:22;;;;;;;1.38;1.10;;;;;;;-5.36;64.58;99346.97;4994374;28;20113;-60
2022/01/08 04:28:49;;;;;;;1.38;0.85;;;;;;;-5.37;64.01;99361.56;4993724;28;20506;-61
2022/01/08 04:31:16;;;;;;;1.35;1.10;;;;;;;-5.37;64.12;99356.13;4994541;28;20141;-61
2022/01/08 04:33:43;;;;;;;1.08;0.98;;;;;;;-5.34;64.65;99363.78;4994986;28;20051;-61
2022/01/08 04:36:10;;;;;;;1.13;0.85;;;;;;;-5.31;64.20;99371.44;4994880;28;20047;-61
2022/01/08 04:38:37;;;;;;;1.58;1.15;;;;;;;-5.27;64.28;99364.53;4994953;28;20050;-61
2022/01/08 04:41:04;;;;;;;1.73;1.30;;;;;;;-5.26;63.70;99374.28;4994266;28;20042;-61
2022/01/08 04:43:31;;;;;;;3.17;1.17;;;;;;;-5.25;64.46;99381.34;4994587;28;20531;-61
2022/01/08 04:45:59;;;;;;;1.80;1.20;;;;;;;-5.23;64.04;99390.91;4994253;28;20058;-60
2022/01/08 04:48:26;;;;;;;3.85;1.10;;;;;;;-5.27;64.15;99383.50;4995017;28;20058;-61
2022/01/08 04:50:52;;;;;;;0.73;0.73;;;;;;;-5.30;64.41;99389.38;4993995;28;20097;-61
2022/01/08 04:53:19;;;;;;;1.02;0.82;;;;;;;-5.25;64.33;99392.19;4994843;28;20058;-59
2022/01/08 04:55:46;;;;;;;1.73;1.13;;;;;;;-5.31;64.92;99398.56;4994136;28;20050;-59
2022/01/08 04:58:14;;;;;;;1.60;1.10;;;;;;;-5.32;64.88;99400.47;4994605;28;20506;-61
2022/01/08 05:00:41;;;;;;;3.00;1.10;;;;;;;-5.31;65.04;99393.97;5005969;28;20409;-61
2022/01/08 05:03:08;;;;;;;2.13;1.08;;;;;;;-5.35;64.97;99408.22;4993907;28;20065;-59
2022/01/08 05:05:36;;;;;;;1.52;1.33;;;;;;;-5.35;64.58;99402.81;4993561;28;20050;-58
2022/01/08 05:08:03;;;;;;;1.52;1.13;;;;;;;-5.27;64.54;99410.59;4993950;28;20391;-58
2022/01/08 05:10:33;;;;;;;1.88;1.20;;;;;;;-5.22;64.90;99411.53;4994500;28;20089;-57
2022/01/08 05:13:04;;;;;;;2.08;1.10;;;;;;;-5.16;64.75;99428.75;4993911;28;20141;-60
2022/01/08 05:15:32;;;;;;;4.85;1.20;;;;;;;-5.13;64.61;99420.16;4994307;28;20054;-59
2022/01/08 05:17:59;;;;;;;1.70;1.10;;;;;;;-5.04;65.00;99441.25;4993849;28;20054;-58
2022/01/08 05:20:31;;;;;;;1.83;1.15;;;;;;;-5.01;64.74;99440.78;4993971;28;20038;-59
2022/01/08 05:23:00;;;;;;;1.63;0.90;;;;;;;-5.05;65.45;99438.78;4992689;28;20050;-59
2022/01/08 05:25:29;;;;;;;3.05;1.52;;;;;;;-5.03;64.99;99447.53;4986171;28;20054;-59
2022/01/08 05:27:57;;;;;;;2.25;1.42;;;;;;;-5.03;65.58;99444.81;4993457;28;20061;-59
2022/01/08 05:30:26;;;;;;;2.05;1.05;;;;;;;-5.01;64.95;99453.53;4993956;28;20046;-60
2022/01/08 05:32:54;;;;;;;1.95;1.13;;;;;;;-5.06;65.83;99466.97;4992141;28;20161;-59
2022/01/08 05:35:22;;;;;;;1.60;1.10;;;;;;;-5.03;65.62;99466.50;4992774;28;20043;-57
2022/01/08 05:37:49;;;;;;;2.28;1.10;;;;;;;-5.00;65.56;99471.44;4993216;28;20058;-58
2022/01/08 05:40:16;;;;;;;1.67;0.90;;;;;;;-4.96;65.59;99478.06;4994032;28;20050;-58
2022/01/08 05:42:43;;;;;;;1.65;0.82;;;;;;;-4.98;65.52;99474.78;4992871;28;20085;-58
2022/01/08 05:45:10;;;;;;;2.95;1.13;;;;;;;-4.99;65.44;99478.50;4993643;28;20050;-57
2022/01/08 05:47:38;;;;;;;3.38;1.38;;;;;;;-4.99;65.54;99478.50;4992808;28;20362;-58
2022/01/08 05:50:06;;;;;;;2.00;1.20;;;;;;;-4.95;65.71;99485.16;4993618;28;20053;-59
2022/01/08 05:52:33;;;;;;;1.17;0.95;;;;;;;-4.90;65.55;99494.22;4992995;28;20046;-59
2022/01/08 05:55:00;;;;;;;1.35;0.80;;;;;;;-4.93;65.53;99489.25;4993504;28;20050;-59
2022/01/08 05:57:28;;;;;;;1.48;0.82;;;;;;;-4.93;65.90;99491.13;4993402;28;20149;-58
2022/01/08 05:59:55;;;;;;;3.95;1.20;;;;;;;-4.89;65.67;99500.47;4992985;28;20046;-58
2022/01/08 06:02:22;;;;;;;1.60;0.80;;;;;;;-4.87;65.23;99504.59;4993445;28;20057;-59
2022/01/08 06:04:49;;;;;;;2.00;1.40;;;;;;;-4.82;65.72;99506.59;4992895;28;20057;-59
2022/01/08 06:07:16;;;;;;;2.65;1.38;;;;;;;-4.80;65.41;99509.91;4992969;28;20057;-58
2022/01/08 06:09:43;;;;;;;3.65;1.38;;;;;;;-4.78;65.60;99510.50;4992821;28;20076;-58
2022/01/08 06:12:10;;;;;;;2.17;1.27;;;;;;;-4.77;65.68;99517.59;4993183;28;20084;-59
2022/01/08 06:14:37;;;;;;;6.70;4.65;;;;;;;-4.74;65.72;99519.84;4991326;28;20082;-58
2022/01/08 06:17:05;;;;;;;2.88;1.88;;;;;;;-4.72;66.09;99520.41;4992873;28;20357;-58
2022/01/08 06:19:32;;;;;;;2.72;1.40;;;;;;;-4.77;66.28;99533.88;4992670;28;20513;-59
2022/01/08 06:22:00;;;;;;;4.07;1.65;;;;;;;-4.75;65.69;99539.88;4992812;28;20057;-59
2022/01/08 06:24:28;;;;;;;1.65;1.10;;;;;;;-4.75;66.03;99546.13;4992618;28;20056;-58
2022/01/08 06:26:55;;;;;;;2.45;1.30;;;;;;;-4.77;66.20;99545.53;4991259;28;20060;-59
2022/01/08 06:29:22;;;;;;;5.30;1.17;;;;;;;-4.75;66.63;99550.72;4990986;28;20054;-58
2022/01/08 06:31:50;;;;;;;2.00;1.20;;;;;;;-4.76;66.53;99544.50;4989837;28;20042;-59
2022/01/08 06:34:16;;;;;;;2.40;1.10;;;;;;;-4.76;66.50;99549.06;4991311;28;20054;-59
2022/01/08 06:36:43;;;;;;;1.33;1.00;;;;;;;-4.75;66.81;99554.28;4992863;28;20064;-57
2022/01/08 06:39:10;;;;;;;2.30;1.30;;;;;;;-4.77;66.03;99559.09;4993183;28;20100;-58
2022/01/08 06:41:37;;;;;;;2.72;1.00;;;;;;;-4.71;65.90;99555.44;4992644;28;20038;-56
2022/01/08 06:44:05;;;;;;;2.28;0.90;;;;;;;-4.68;65.16;99567.72;4992872;28;20498;-59
2022/01/08 06:46:31;;;;;;;4.28;1.10;;;;;;;-4.70;65.16;99565.25;4991983;28;20054;-58
2022/01/08 06:48:59;;;;;;;1.15;0.85;;;;;;;-4.65;65.21;99561.84;4992831;28;20055;-58
2022/01/08 06:51:26;;;;;;;1.88;0.93;;;;;;;-4.62;64.45;99567.59;4992198;28;20580;-58
2022/01/08 06:53:53;;;;;;;1.75;0.88;;;;;;;-4.58;64.24;99567.97;4992252;28;20061;-57
2022/01/08 06:56:20;;;;;;;1.33;0.90;;;;;;;-4.57;63.90;99580.47;4991976;28;20046;-58
2022/01/08 06:58:47;;;;;;;1.20;0.90;;;;;;;-4.52;63.57;99577.88;4992573;28;20136;-60
2022/01/08 07:01:14;;;;;;;2.15;1.10;;;;;;;-4.48;62.77;99568.19;4991661;28;20046;-57
2022/01/08 07:03:41;;;;;;;4.65;1.30;;;;;;;-4.45;63.32;99573.16;4992572;28;20081;-56
2022/01/08 07:06:08;;;;;;;6.13;1.10;;;;;;;-4.42;62.66;99578.13;4992201;28;20054;-57
2022/01/08 07:08:35;;;;;;;2.22;1.08;;;;;;;-4.40;62.66;99576.84;4992148;28;20413;-60
2022/01/08 07:11:02;;;;;;;3.30;1.17;;;;;;;-4.35;62.81;99589.72;4992033;28;20058;-57
2022/01/08 07:13:29;;;;;;;1.83;0.88;;;;;;;-4.38;62.03;99584.75;4992121;28;20132;-57
2022/01/08 07:15:56;;;;;;;3.35;0.90;;;;;;;-4.47;62.63;99599.72;4992442;28;20081;-59
2022/01/08 07:18:23;;;;;;;1.67;1.10;;;;;;;-4.48;62.96;99598.91;4992315;28;20061;-59
2022/01/08 07:20:49;;;;;;;1.98;1.00;;;;;;;-4.48;62.84;99600.78;4992332;28;20072;-57
2022/01/08 07:23:16;;;;;;;1.70;0.90;;;;;;;-4.45;63.17;99601.13;4992086;28;20058;-59
2022/01/08 07:25:43;;;;;;;0.65;0.57;;;;;;;-4.42;62.99;99594.41;4992041;28;20509;-59
2022/01/08 07:28:10;;;;;;;1.17;0.77;;;;;;;-4.36;63.16;99615.19;4991724;28;20086;-59
2022/01/08 07:30:37;;;;;;;1.35;0.98;;;;;;;-4.36;62.52;99610.59;4992244;28;20052;-57
2022/01/08 07:33:04;;;;;;;4.63;1.10;;;;;;;-4.27;63.33;99619.19;4992071;28;20104;-57
2022/01/08 07:35:31;;;;;;;2.42;1.10;;;;;;;-4.20;62.50;99614.50;4992070;28;20046;-58
2022/01/08 07:37:59;;;;;;;1.98;1.02;;;;;;;-4.14;62.59;99619.00;4991603;28;20048;-57
2022/01/08 07:40:26;;;;;;;2.35;1.35;;;;;;;-4.06;62.59;99624.03;4995349;28;20050;-58
2022/01/08 07:42:53;;;;;;;3.20;1.38;;;;;;;-3.99;62.53;99617.44;4995534;28;20192;-60
2022/01/08 07:45:20;;;;;;;0.98;0.88;;;;;;;-3.96;62.05;99624.28;4995925;28;20510;-59
2022/01/08 07:47:48;;;;;;;3.47;1.20;;;;;;;-3.89;62.42;99631.25;4995232;28;20062;-58
2022/01/08 07:50:16;;;;;;;2.65;1.10;;;;;;;-3.87;62.17;99628.31;4995729;28;20101;-59
2022/01/08 07:52:43;;;;;;;4.60;1.33;;;;;;;-3.69;62.05;99633.59;4995409;28;20050;-59
2022/01/08 07:55:12;;;;;;;5.25;1.25;;;;;;;-3.38;60.66;99633.16;4995658;28;20057;-60
2022/01/08 07:57:39;;;;;;;2.92;1.30;;;;;;;-3.08;59.74;99647.38;4995414;28;20548;-60
2022/01/08 08:00:08;;;;;;;1.38;0.82;;;;;;;-2.96;58.73;99634.53;4994828;28;20046;-60
2022/01/08 08:02:35;;;;;;;1.98;1.05;;;;;;;-2.95;58.13;99644.38;4995844;28;20042;-60
2022/01/08 08:05:02;;;;;;;3.22;1.40;;;;;;;-2.76;58.93;99644.97;4995174;28;20133;-59
2022/01/08 08:07:36;;;;;;;2.38;1.58;;;;;;;-2.68;58.56;99648.16;4995579;28;20053;-59
2022/01/08 08:10:12;;;;;;;4.00;1.00;;;;;;;-2.67;58.58;99659.84;4995347;28;20046;-57
2022/01/08 08:12:41;;;;;;;3.17;1.08;;;;;;;-2.34;58.39;99649.03;4995249;28;20050;-59
2022/01/08 08:15:09;;;;;;;4.82;1.42;;;;;;;-1.97;57.49;99651.00;4994723;28;20050;-60
2022/01/08 08:17:36;;;;;;;1.40;0.95;;;;;;;-1.66;56.88;99652.25;4995148;28;20058;-59
2022/01/08 08:20:04;;;;;;;7.63;1.02;;;;;;;-1.49;55.60;99655.78;4994556;28;20062;-60
2022/01/08 08:22:31;;;;;;;2.00;1.10;;;;;;;-1.63;55.84;99653.69;5005299;28;20046;-59
2022/01/08 08:24:58;;;;;;;6.35;1.13;;;;;;;-2.07;56.59;99661.72;5010692;28;20509;-59
2022/01/08 08:27:25;;;;;;;3.10;1.20;;;;;;;-2.47;56.99;99658.34;5012661;28;20069;-60
2022/01/08 08:29:51;;;;;;;2.58;1.05;;;;;;;-2.67;57.49;99666.13;5010781;28;20157;-55
2022/01/08 08:32:19;;;;;;;3.38;1.20;;;;;;;-2.70;57.67;99666.63;5011243;28;20129;-57
2022/01/08 08:34:46;;;;;;;2.13;1.20;;;;;;;-2.51;57.44;99662.63;4993187;28;20145;-57
2022/01/08 08:37:14;;;;;;;6.82;1.20;;;;;;;-2.65;57.04;99664.00;4995034;28;20076;-60
2022/01/08 08:39:41;;;;;;;3.63;1.02;;;;;;;-2.88;57.64;99669.53;4994318;28;20050;-59
2022/01/08 08:42:08;;;;;;;4.85;1.00;;;;;;;-2.96;57.79;99661.75;4994802;28;20050;-58
2022/01/08 08:44:34;;;;;;;2.33;0.90;;;;;;;-2.88;57.75;99669.53;4994844;28;20042;-58
2022/01/08 08:47:03;;;;;;;1.95;1.02;;;;;;;-2.87;57.81;99671.19;4994404;28;20498;-59
2022/01/08 08:49:31;;;;;;;2.80;1.13;;;;;;;-2.96;57.50;99667.19;4994073;28;20057;-59
2022/01/08 08:51:58;;;;;;;4.65;1.20;;;;;;;-3.00;57.91;99679.66;4994404;28;20046;-61
2022/01/08 08:54:25;;;;;;;1.95;1.10;;;;;;;-2.91;58.15;99667.31;4993939;28;20050;-58
2022/01/08 08:56:52;;;;;;;1.80;1.10;;;;;;;-2.90;57.93;99668.94;4993970;28;20060;-58
2022/01/08 08:59:19;;;;;;;3.90;1.13;;;;;;;-2.92;58.04;99678.44;4994997;28;20410;-61
2022/01/08 09:01:46;;;;;;;2.22;1.10;;;;;;;-3.11;57.82;99683.22;4993791;28;20413;-59
2022/01/08 09:04:13;;;;;;;3.05;1.20;;;;;;;-3.18;58.57;99682.53;4994571;28;20054;-59
2022/01/08 09:06:40;;;;;;;6.35;1.65;;;;;;;-3.15;58.37;99684.78;4994075;28;20046;-59
2022/01/08 09:09:07;;;;;;;3.10;1.42;;;;;;;-3.05;58.31;99690.41;4993188;28;20065;-57
2022/01/08 09:11:34;;;;;;;3.33;1.27;;;;;;;-3.05;58.38;99690.41;4993896;28;20093;-58
2022/01/08 09:14:01;;;;;;;7.10;2.00;;;;;;;-3.13;58.91;99704.41;4994358;28;20054;-60
2022/01/08 09:16:28;;;;;;;6.40;1.90;;;;;;;-3.09;59.04;99700.13;4993774;28;20088;-59
2022/01/08 09:18:55;;;;;;;4.45;1.55;;;;;;;-3.02;58.87;99705.44;4990705;28;20050;-59
2022/01/08 09:21:22;;;;;;;2.15;1.20;;;;;;;-3.05;58.81;99714.91;4993716;28;20055;-59
2022/01/08 09:23:49;;;;;;;11.15;3.20;;;;;;;-3.04;59.23;99711.13;4994154;28;20056;-58
2022/01/08 09:26:16;;;;;;;4.28;1.75;;;;;;;-3.00;59.05;99708.75;4993870;28;20109;-59
2022/01/08 09:28:43;;;;;;;3.15;1.70;;;;;;;-2.91;59.24;99702.69;4993720;28;20065;-59
2022/01/08 09:31:11;;;;;;;5.88;1.52;;;;;;;-2.81;58.97;99707.50;4994481;28;20573;-57
2022/01/08 09:33:38;;;;;;;3.83;1.02;;;;;;;-2.72;59.02;99712.31;4993261;28;20046;-58
2022/01/08 09:36:06;;;;;;;2.20;1.10;;;;;;;-2.74;59.29;99714.47;4984893;28;20101;-61
2022/01/08 09:38:33;;;;;;;6.57;1.20;;;;;;;-2.73;59.40;99713.38;4993558;28;20066;-61
2022/01/08 09:41:00;;;;;;;2.03;1.30;;;;;;;-2.91;59.58;99708.13;4993616;28;20043;-62
2022/01/08 09:43:27;;;;;;;1.77;1.27;;;;;;;-3.11;60.33;99717.78;4993520;28;20112;-61
2022/01/08 09:45:54;;;;;;;1.85;1.02;;;;;;;-3.23;60.19;99730.59;4993729;28;20399;-62
2022/01/08 09:48:21;;;;;;;3.47;1.45;;;;;;;-3.24;60.08;99734.34;4993586;28;20050;-61
2022/01/08 09:50:48;;;;;;;2.78;1.38;;;;;;;-3.22;59.76;99734.94;4993836;28;20073;-62
2022/01/08 09:53:15;;;;;;;2.85;1.35;;;;;;;-3.23;60.38;99746.91;4991785;28;20141;-60
2022/01/08 09:55:42;;;;;;;2.40;1.20;;;;;;;-3.31;60.14;99748.09;4992375;28;20532;-60
2022/01/08 09:58:11;;;;;;;3.13;1.30;;;;;;;-3.32;60.95;99760.00;5005956;28;20050;-60
2022/01/08 10:00:38;;;;;;;4.35;1.70;;;;;;;-3.34;60.93;99751.28;4992522;28;20517;-59
2022/01/08 10:03:20;;;;;;;3.20;1.60;;;;;;;-3.33;60.17;99757.53;4993169;28;20092;-61
2022/01/08 10:05:56;;;;;;;4.25;1.65;;;;;;;-3.33;60.77;99758.38;4993224;28;20061;-59
2022/01/08 10:08:43;;;;;;;8.95;1.90;;;;;;;-3.39;60.57;99759.31;4992586;28;20107;-62
2022/01/08 10:11:12;;;;;;;4.32;1.30;;;;;;;-3.47;61.09;99762.38;4993367;28;20050;-58
2022/01/08 10:13:41;;;;;;;1.83;1.25;;;;;;;-3.51;61.29;99766.66;4992908;28;20060;-59
2022/01/08 10:19:16;;;;;;;5.35;1.60;;;;;;;-3.50;60.92;99762.06;4991578;28;20148;-58
2022/01/08 10:21:45;;;;;;;2.38;1.35;;;;;;;-3.49;61.11;99769.97;4992839;28;20521;-59
2022/01/08 10:24:18;;;;;;;4.57;1.50;;;;;;;-3.46;61.10;99771.38;4991935;28;20518;-59
2022/01/08 10:26:45;;;;;;;7.05;1.98;;;;;;;-3.45;61.63;99771.16;4992640;28;20058;-61
2022/01/08 10:29:15;;;;;;;3.38;1.40;;;;;;;-3.36;61.18;99769.72;4994759;28;20049;-59
2022/01/08 10:31:48;;;;;;;1.47;1.03;;;;;;;-3.38;61.15;99774.56;5008843;28;20049;-58
2022/01/08 10:34:26;;;;;;;4.28;1.90;;;;;;;-3.31;60.79;99772.56;4990284;28;20084;-60
2022/01/08 10:36:53;;;;;;;3.00;1.42;;;;;;;-3.24;61.05;99773.25;4992414;28;20054;-59
2022/01/08 10:39:28;;;;;;;3.60;1.65;;;;;;;-3.32;60.91;99775.53;4991390;28;20073;-59
2022/01/08 10:41:58;;;;;;;4.18;1.73;;;;;;;-3.40;61.55;99763.13;4992240;28;21234;-59
2022/01/08 10:44:31;;;;;;;3.43;1.30;;;;;;;-3.50;62.03;99773.75;4992713;28;20395;-57
2022/01/08 10:47:13;;;;;;;5.43;1.98;;;;;;;-3.45;61.80;99776.59;4992160;28;20061;-59
2022/01/08 10:49:46;;;;;;;3.67;1.55;;;;;;;-3.37;61.97;99778.97;4993003;28;20089;-61
2022/01/08 10:52:19;;;;;;;4.18;1.50;;;;;;;-3.31;61.64;99778.00;4992265;28;20069;-60
2022/01/08 10:55:01;;;;;;;3.25;1.67;;;;;;;-3.31;61.72;99778.00;4992745;28;20054;-62
2022/01/08 10:57:41;;;;;;;7.43;1.95;;;;;;;-3.36;61.70;99774.31;4992253;28;20510;-59
2022/01/08 11:00:11;;;;;;;4.30;1.80;;;;;;;-3.47;62.22;99773.25;4991121;28;20078;-56
2022/01/08 11:02:39;;;;;;;5.28;1.83;;;;;;;-3.49;62.01;99769.97;4992102;28;20148;-59
2022/01/08 11:05:09;;;;;;;4.80;2.03;;;;;;;-3.42;61.99;99759.81;4992010;28;20456;-60
2022/01/08 11:07:39;;;;;;;3.88;1.80;;;;;;;-3.35;61.68;99762.41;4992073;28;20054;-59
2022/01/08 11:10:16;;;;;;;6.47;2.47;;;;;;;-3.30;61.40;99757.91;5004491;28;20109;-62
2022/01/08 11:12:46;;;;;;;6.15;2.05;;;;;;;-3.30;61.69;99757.91;4989394;28;20046;-60
2022/01/08 11:17:54;;;;;;;4.43;1.75;;;;;;;-3.23;62.14;99763.22;5015956;28;20425;-61
2022/01/08 11:20:44;;;;;;;3.33;1.80;;;;;;;-3.25;62.10;99762.63;5000212;28;20178;-60
2022/01/08 11:23:12;;;;;;;4.75;1.75;;;;;;;-3.26;62.21;99767.22;4996446;28;20082;-60
2022/01/08 11:25:39;;;;;;;5.03;2.00;;;;;;;-3.21;61.80;99771.94;4994436;28;20089;-60
2022/01/08 11:28:10;;;;;;;5.60;1.70;;;;;;;-3.12;62.36;99775.97;4995886;28;20055;-58
2022/01/08 11:30:44;;;;;;;5.93;2.30;;;;;;;-3.09;62.33;99776.31;4994862;28;20066;-58
2022/01/08 11:33:20;;;;;;;6.43;2.63;;;;;;;-3.04;61.62;99779.16;4996141;28;20080;-58
2022/01/08 11:35:50;;;;;;;6.32;3.00;;;;;;;-3.01;61.73;99788.72;4995964;28;20053;-59
2022/01/08 11:38:20;;;;;;;3.63;1.83;;;;;;;-2.99;61.78;99792.84;4996012;28;20097;-60
2022/01/08 11:40:50;;;;;;;5.85;2.33;;;;;;;-2.99;62.31;99808.38;4995666;28;20570;-60
2022/01/08 11:43:19;;;;;;;7.40;2.10;;;;;;;-3.11;61.86;99810.28;4995855;28;20046;-59
2022/01/08 11:45:59;;;;;;;8.25;1.80;;;;;;;-3.16;62.14;99811.00;4995489;28;20166;-55
2022/01/08 11:48:32;;;;;;;5.10;2.05;;;;;;;-3.20;62.63;99815.22;4995717;28;20046;-58
2022/01/08 11:51:00;;;;;;;3.58;1.85;;;;;;;-3.25;62.75;99817.84;4995473;28;20054;-60
2022/01/08 11:53:30;;;;;;;4.50;2.20;;;;;;;-3.32;62.54;99814.41;4995957;28;20050;-59
2022/01/08 11:56:01;;;;;;;3.65;1.98;;;;;;;-3.34;62.48;99816.56;4995327;28;20050;-58
2022/01/08 11:58:33;;;;;;;5.00;2.28;;;;;;;-3.36;62.75;99812.41;4995869;28;20054;-58
2022/01/08 12:01:06;;;;;;;5.13;2.30;;;;;;;-3.35;62.59;99809.44;5011130;28;20053;-59
2022/01/08 12:03:52;;;;;;;6.32;2.13;;;;;;;-3.40;63.18;99806.63;5011961;28;20465;-59
2022/01/08 12:06:23;;;;;;;13.55;2.33;;;;;;;-3.36;62.43;99817.84;4993134;28;20057;-57